createdAt,value
2018-01-19T00:01:03.154Z,6.87
2018-01-19T00:03:30.975Z,5.73
2018-01-19T00:05:58.765Z,6.00
2018-01-19T00:08:26.534Z,5.50
2018-01-19T00:10:55.069Z,5.83
2018-01-19T00:13:23.680Z,5.27
2018-01-19T00:15:51.464Z,5.60
2018-01-19T00:18:19.276Z,4.60
2018-01-19T00:20:47.898Z,5.93
2018-01-19T00:23:18.574Z,5.77
2018-01-19T00:25:46.440Z,4.70
2018-01-19T00:28:14.255Z,5.30
2018-01-19T00:30:42.057Z,5.00
2018-01-19T00:33:09.916Z,4.80
2018-01-19T00:35:37.701Z,5.57
2018-01-19T00:38:05.560Z,4.83
2018-01-19T00:40:33.379Z,5.40
2018-01-19T00:43:01.163Z,6.40
2018-01-19T00:45:28.940Z,5.50
2018-01-19T00:47:56.705Z,5.00
2018-01-19T00:50:24.462Z,4.97
2018-01-19T00:52:52.302Z,4.53
2018-01-19T00:55:20.068Z,4.90
2018-01-19T00:57:47.857Z,4.47
2018-01-19T01:00:15.647Z,4.10
2018-01-19T01:02:45.291Z,3.87
2018-01-19T01:05:13.178Z,5.43
2018-01-19T01:07:46.111Z,3.87
2018-01-19T01:10:13.968Z,2.90
2018-01-19T01:12:41.777Z,4.40
2018-01-19T01:15:09.601Z,3.33
2018-01-19T01:17:37.463Z,3.07
2018-01-19T01:20:05.335Z,3.00
2018-01-19T01:22:33.192Z,2.70
2018-01-19T01:25:00.996Z,4.50
2018-01-19T01:27:29.612Z,2.97
2018-01-19T01:29:57.440Z,2.03
2018-01-19T01:32:25.251Z,2.80
2018-01-19T01:34:53.218Z,1.47
2018-01-19T01:37:21.096Z,2.20
2018-01-19T01:39:48.875Z,2.00
2018-01-19T01:42:16.676Z,3.53
2018-01-19T01:44:44.516Z,5.03
2018-01-19T01:47:12.365Z,4.87
2018-01-19T01:49:40.178Z,4.40
2018-01-19T01:52:08.041Z,5.10
2018-01-19T01:54:35.883Z,3.60
2018-01-19T01:57:04.487Z,4.70
2018-01-19T01:59:32.329Z,4.20
2018-01-19T02:02:00.115Z,5.00
2018-01-19T02:04:28.696Z,4.27
2018-01-19T02:06:56.486Z,5.70
2018-01-19T02:09:24.254Z,5.23
2018-01-19T02:11:52.054Z,4.80
2018-01-19T02:14:19.851Z,4.50
2018-01-19T02:16:47.649Z,4.20
2018-01-19T02:19:15.484Z,4.83
2018-01-19T02:21:44.047Z,5.17
2018-01-19T02:24:11.891Z,4.87
2018-01-19T02:26:39.676Z,3.77
2018-01-19T02:29:07.468Z,4.80
2018-01-19T02:31:35.243Z,4.70
2018-01-19T02:34:03.041Z,4.00
2018-01-19T02:36:30.809Z,3.97
2018-01-19T02:38:58.614Z,4.83
2018-01-19T02:41:28.149Z,4.30
2018-01-19T02:43:55.966Z,4.90
2018-01-19T02:46:23.888Z,5.20
2018-01-19T02:48:51.695Z,4.80
2018-01-19T02:51:19.524Z,5.80
2018-01-19T02:53:47.338Z,6.47
2018-01-19T02:56:15.120Z,6.10
2018-01-19T02:58:43.710Z,6.00
2018-01-19T03:01:11.495Z,5.20
2018-01-19T03:03:39.279Z,6.30
2018-01-19T03:06:07.051Z,5.50
2018-01-19T03:08:34.846Z,5.47
2018-01-19T03:11:02.690Z,6.17
2018-01-19T03:13:30.488Z,8.70
2018-01-19T03:15:59.027Z,6.63
2018-01-19T03:18:26.835Z,6.70
2018-01-19T03:20:54.625Z,6.70
2018-01-19T03:23:22.472Z,6.53
2018-01-19T03:25:50.270Z,6.10
2018-01-19T03:28:18.056Z,6.00
2018-01-19T03:30:45.848Z,5.83
2018-01-19T03:33:14.382Z,6.00
2018-01-19T03:35:42.280Z,6.40
2018-01-19T03:38:10.075Z,5.73
2018-01-19T03:40:38.649Z,7.23
2018-01-19T03:43:06.430Z,7.80
2018-01-19T03:45:34.199Z,7.53
2018-01-19T03:48:01.979Z,7.63
2018-01-19T03:50:29.762Z,6.97
2018-01-19T03:52:57.594Z,6.80
2018-01-19T03:55:25.449Z,6.60
2018-01-19T03:57:53.314Z,7.37
2018-01-19T04:00:21.161Z,6.80
2018-01-19T04:02:49.023Z,6.80
2018-01-19T04:05:16.868Z,8.03
2018-01-19T04:07:44.649Z,6.93
2018-01-19T04:10:12.470Z,7.53
2018-01-19T04:12:40.292Z,8.17
2018-01-19T04:15:08.075Z,9.23
2018-01-19T04:17:35.847Z,10.10
2018-01-19T04:20:03.666Z,8.97
2018-01-19T04:22:31.503Z,8.47
2018-01-19T04:24:59.267Z,7.07
2018-01-19T04:27:27.067Z,7.53
2018-01-19T04:29:54.922Z,6.33
2018-01-19T04:32:22.721Z,7.40
2018-01-19T04:34:50.500Z,7.00
2018-01-19T04:37:18.322Z,7.43
2018-01-19T04:39:46.146Z,7.13
2018-01-19T04:42:13.982Z,7.60
2018-01-19T04:44:41.809Z,7.93
2018-01-19T04:47:09.686Z,6.93
2018-01-19T04:49:37.470Z,7.87
2018-01-19T04:52:05.329Z,7.27
2018-01-19T04:54:33.106Z,7.23
2018-01-19T04:57:01.704Z,6.70
2018-01-19T04:59:29.499Z,7.87
2018-01-19T05:01:57.286Z,6.23
2018-01-19T05:04:25.082Z,7.23
2018-01-19T05:06:52.917Z,7.47
2018-01-19T05:09:20.698Z,7.33
2018-01-19T05:11:49.322Z,8.40
2018-01-19T05:14:17.165Z,8.30
2018-01-19T05:16:44.948Z,6.37
2018-01-19T05:19:12.794Z,5.60
2018-01-19T05:21:40.601Z,6.90
2018-01-19T05:24:08.450Z,6.87
2018-01-19T05:26:36.226Z,7.57
2018-01-19T05:29:04.023Z,7.03
2018-01-19T05:31:31.877Z,7.30
2018-01-19T05:33:59.820Z,7.40
2018-01-19T05:36:27.603Z,5.93
2018-01-19T05:38:55.435Z,7.70
2018-01-19T05:41:23.291Z,7.28
2018-01-19T05:43:52.189Z,6.97
2018-01-19T05:46:20.982Z,7.07
2018-01-19T05:48:48.956Z,6.90
2018-01-19T05:51:16.836Z,6.57
2018-01-19T05:53:45.488Z,5.70
2018-01-19T05:56:13.573Z,6.83
2018-01-19T05:58:42.297Z,5.83
2018-01-19T06:01:10.575Z,8.00
2018-01-19T06:03:38.453Z,6.20
2018-01-19T06:06:07.288Z,7.10
2018-01-19T06:08:35.138Z,5.93
2018-01-19T06:11:04.547Z,6.70
2018-01-19T06:13:32.441Z,6.37
2018-01-19T06:16:00.332Z,6.43
2018-01-19T06:18:28.229Z,7.30
2018-01-19T06:20:56.860Z,6.60
2018-01-19T06:23:25.558Z,6.73
2018-01-19T06:25:53.439Z,6.93
2018-01-19T06:28:21.588Z,6.13
2018-01-19T06:30:50.337Z,6.50
2018-01-19T06:33:20.915Z,7.60
2018-01-19T06:35:48.723Z,7.30
2018-01-19T06:38:16.540Z,7.20
2018-01-19T06:40:49.400Z,6.10
2018-01-19T06:43:17.629Z,7.30
2018-01-19T06:45:45.515Z,7.00
2018-01-19T06:48:14.927Z,7.22
2018-01-19T06:50:43.812Z,8.43
2018-01-19T06:53:11.751Z,7.03
2018-01-19T06:55:40.052Z,6.97
2018-01-19T06:58:07.892Z,8.20
2018-01-19T07:00:35.736Z,7.70
2018-01-19T07:03:04.565Z,7.30
2018-01-19T07:05:33.168Z,7.30
2018-01-19T07:08:02.144Z,8.40
2018-01-19T07:10:30.775Z,6.90
2018-01-19T07:12:58.655Z,7.50
2018-01-19T07:15:26.488Z,7.10
2018-01-19T07:17:54.278Z,7.43
2018-01-19T07:20:22.218Z,6.40
2018-01-19T07:22:51.179Z,6.60
2018-01-19T07:25:19.796Z,6.50
2018-01-19T07:27:47.597Z,6.07
2018-01-19T07:30:16.010Z,7.23
2018-01-19T07:32:44.581Z,7.70
2018-01-19T07:35:13.350Z,5.83
2018-01-19T07:37:41.267Z,7.53
2018-01-19T07:40:09.224Z,6.40
2018-01-19T07:42:38.079Z,5.90
2018-01-19T07:45:06.140Z,7.37
2018-01-19T07:47:34.004Z,7.67
2018-01-19T07:50:01.980Z,6.17
2018-01-19T07:52:29.808Z,6.30
2018-01-19T07:54:57.611Z,8.10
2018-01-19T07:57:25.516Z,7.25
2018-01-19T07:59:53.313Z,8.27
2018-01-19T08:02:21.116Z,8.90
2018-01-19T08:04:48.928Z,7.60
2018-01-19T08:07:17.056Z,7.67
2018-01-19T08:09:44.912Z,7.20
2018-01-19T08:12:13.680Z,8.33
2018-01-19T08:14:41.928Z,8.33
2018-01-19T08:17:09.744Z,9.17
2018-01-19T08:19:37.634Z,8.90
2018-01-19T08:22:05.487Z,7.90
2018-01-19T08:24:34.118Z,8.30
2018-01-19T08:27:01.968Z,8.53
2018-01-19T08:29:29.807Z,8.87
2018-01-19T08:31:58.451Z,7.60
2018-01-19T08:34:26.330Z,10.27
2018-01-19T08:43:58.408Z,9.83
2018-01-19T08:50:13.323Z,9.00
2018-01-19T08:56:35.515Z,9.90
2018-01-19T09:06:36.591Z,9.27
2018-01-19T09:09:04.566Z,10.40
2018-01-19T09:19:22.589Z,8.87
2018-01-19T09:25:56.550Z,9.30
2018-01-19T09:32:35.431Z,7.07
2018-01-19T09:35:30.575Z,6.93
2018-01-19T10:13:30.113Z,8.67
2018-01-19T10:18:55.553Z,7.10
2018-01-19T10:22:11.378Z,7.33
2018-01-19T10:28:09.519Z,8.10
2018-01-19T10:53:51.334Z,7.87
2018-01-19T11:26:53.452Z,6.93
2018-01-19T11:29:21.506Z,6.63
2018-01-19T11:34:41.868Z,8.00
2018-01-19T11:37:11.557Z,7.13
2018-01-19T11:43:15.082Z,9.57
2018-01-19T11:45:43.705Z,6.47
2018-01-19T11:48:11.619Z,8.47
2018-01-19T11:50:41.546Z,7.57
2018-01-19T11:53:09.376Z,9.50
2018-01-19T11:55:38.074Z,9.90
2018-01-19T11:58:05.997Z,12.50
2018-01-19T12:00:34.797Z,11.23
2018-01-19T12:03:02.595Z,11.60
2018-01-19T12:05:30.661Z,8.90
2018-01-19T12:07:58.556Z,9.27
2018-01-19T12:10:26.392Z,8.87
2018-01-19T12:12:54.404Z,8.90
2018-01-19T12:15:22.242Z,8.87
2018-01-19T12:17:50.367Z,9.03
2018-01-19T12:20:18.890Z,7.60
2018-01-19T12:22:46.976Z,8.87
2018-01-19T12:25:14.877Z,9.33
2018-01-19T12:27:42.992Z,8.77
2018-01-19T12:30:15.472Z,8.70
2018-01-19T12:32:48.179Z,8.23
2018-01-19T12:35:17.585Z,7.67
2018-01-19T12:37:50.880Z,7.53
2018-01-19T12:40:28.095Z,8.00
2018-01-19T12:43:06.894Z,7.90
2018-01-19T12:45:36.623Z,6.60
2018-01-19T12:48:08.997Z,8.03
2018-01-19T12:50:39.002Z,7.40
2018-01-19T12:53:08.902Z,7.50
2018-01-19T12:55:37.694Z,7.57
2018-01-19T12:58:07.036Z,7.53
2018-01-19T13:00:35.135Z,7.03
2018-01-19T13:03:02.987Z,7.37
2018-01-19T13:05:30.919Z,6.93
2018-01-19T13:07:58.712Z,7.80
2018-01-19T13:10:26.550Z,7.77
2018-01-19T13:12:54.441Z,7.43
2018-01-19T13:15:23.049Z,8.73
2018-01-19T13:17:51.202Z,8.20
2018-01-19T13:20:19.794Z,8.70
2018-01-19T13:22:47.785Z,8.33
2018-01-19T13:25:15.645Z,8.30
2018-01-19T13:27:44.209Z,8.23
2018-01-19T13:30:12.142Z,10.10
2018-01-19T13:32:39.975Z,9.13
2018-01-19T13:35:07.777Z,8.50
2018-01-19T13:37:36.385Z,11.07
2018-01-19T13:40:05.080Z,8.60
2018-01-19T13:42:32.892Z,9.63
2018-01-19T13:45:01.530Z,9.13
2018-01-19T13:47:29.364Z,10.73
2018-01-19T13:49:57.981Z,10.37
2018-01-19T13:52:25.789Z,10.83
2018-01-19T13:54:53.826Z,11.70
2018-01-19T13:57:21.758Z,11.70
2018-01-19T13:59:49.646Z,10.70
2018-01-19T14:02:17.480Z,9.50
2018-01-19T14:04:45.294Z,9.37
2018-01-19T14:07:14.818Z,9.00
2018-01-19T14:09:42.624Z,9.03
2018-01-19T14:12:11.242Z,8.97
2018-01-19T14:14:40.131Z,10.00
2018-01-19T14:17:08.029Z,9.83
2018-01-19T14:19:35.895Z,9.93
2018-01-19T14:22:04.589Z,10.10
2018-01-19T14:24:32.504Z,9.90
2018-01-19T14:27:00.432Z,10.40
2018-01-19T14:29:28.338Z,13.03
2018-01-19T14:31:56.238Z,10.47
2018-01-19T14:34:24.042Z,12.90
2018-01-19T14:36:51.823Z,9.87
2018-01-19T14:39:19.630Z,10.57
2018-01-19T14:41:47.455Z,10.67
2018-01-19T14:44:16.153Z,10.80
2018-01-19T14:46:49.686Z,8.77
2018-01-19T14:49:19.596Z,8.00
2018-01-19T14:51:48.216Z,8.43
2018-01-19T15:48:09.567Z,6.40
2018-01-19T15:50:37.412Z,7.40
2018-01-19T15:53:05.190Z,7.83
2018-01-19T15:55:33.729Z,6.50
2018-01-19T15:58:01.531Z,7.43
2018-01-19T16:00:30.107Z,7.43
2018-01-19T16:02:58.248Z,6.70
2018-01-19T16:05:36.068Z,7.33
2018-01-19T16:08:04.737Z,8.20
2018-01-19T16:13:27.295Z,7.00
2018-01-19T16:15:57.771Z,7.30
2018-01-19T16:18:25.776Z,6.70
2018-01-19T16:20:53.621Z,7.40
2018-01-19T16:23:22.985Z,6.50
2018-01-19T16:25:50.831Z,8.13
2018-01-19T16:28:34.383Z,7.43
2018-01-19T16:34:05.385Z,7.07
2018-01-19T16:36:33.247Z,7.90
2018-01-19T16:39:01.046Z,8.80
2018-01-19T16:41:28.898Z,8.27
2018-01-19T16:43:56.723Z,9.03
2018-01-19T16:46:25.355Z,7.90
2018-01-19T16:48:53.158Z,8.97
2018-01-19T16:51:20.934Z,8.60
2018-01-19T16:53:49.529Z,9.70
2018-01-19T16:56:17.327Z,8.60
2018-01-19T16:58:45.176Z,8.53
2018-01-19T17:01:13.046Z,9.00
2018-01-19T17:03:40.938Z,9.80
2018-01-19T17:06:09.638Z,8.97
2018-01-19T17:08:37.513Z,7.93
2018-01-19T17:11:05.438Z,8.17
2018-01-19T17:13:33.253Z,8.77
2018-01-19T17:16:01.133Z,7.60
2018-01-19T17:18:29.021Z,9.17
2018-01-19T17:20:56.911Z,8.70
2018-01-19T17:23:24.703Z,8.57
2018-01-19T17:25:52.576Z,8.20
2018-01-19T17:28:20.420Z,6.77
2018-01-19T17:30:48.227Z,9.30
2018-01-19T17:33:16.020Z,7.83
2018-01-19T17:35:43.844Z,9.60
2018-01-19T17:38:11.628Z,8.67
2018-01-19T17:40:39.414Z,8.60
2018-01-19T17:43:07.202Z,8.70
2018-01-19T17:45:46.724Z,10.60
2018-01-19T17:51:18.057Z,8.27
2018-01-19T17:53:46.616Z,7.47
2018-01-19T17:56:14.460Z,8.40
2018-01-19T17:58:42.263Z,6.73
2018-01-19T18:01:10.159Z,7.37
2018-01-19T18:03:37.964Z,7.47
2018-01-19T18:06:05.743Z,7.20
2018-01-19T18:08:33.523Z,7.20
2018-01-19T18:11:01.885Z,7.50
2018-01-19T18:13:29.676Z,8.20
2018-01-19T18:15:58.229Z,7.60
2018-01-19T18:18:26.003Z,8.10
2018-01-19T18:20:53.762Z,8.97
2018-01-19T18:23:21.548Z,10.13
2018-01-19T18:25:53.009Z,8.70
2018-01-19T18:28:20.847Z,8.80
2018-01-19T18:30:49.383Z,9.83
2018-01-19T18:33:17.757Z,9.60
2018-01-19T18:35:45.614Z,9.30
2018-01-19T18:38:13.514Z,9.93
2018-01-19T18:40:44.224Z,12.13
2018-01-19T18:43:12.014Z,11.30
2018-01-19T18:48:51.654Z,11.80
2018-01-19T18:51:22.937Z,12.67
2018-01-19T18:53:50.760Z,11.63
2018-01-19T18:56:18.707Z,13.63
2018-01-19T18:58:46.588Z,12.93
2018-01-19T19:04:46.477Z,13.00
2018-01-19T19:07:14.373Z,12.50
2018-01-19T19:09:42.159Z,12.07
2018-01-19T19:12:09.949Z,10.60
2018-01-19T19:14:37.728Z,10.67
2018-01-19T19:17:05.571Z,9.30
2018-01-19T19:19:33.445Z,9.70
2018-01-19T19:22:01.345Z,9.17
2018-01-19T19:24:30.054Z,10.40
2018-01-19T19:26:58.853Z,8.63
2018-01-19T19:29:27.116Z,10.87
2018-01-19T19:31:57.610Z,12.00
2018-01-19T19:34:25.578Z,12.57
2018-01-19T19:36:53.520Z,9.10
2018-01-19T19:39:21.679Z,9.07
2018-01-19T19:41:50.258Z,8.20
2018-01-19T19:44:21.209Z,8.47
2018-01-19T19:46:49.991Z,7.60
2018-01-19T19:49:17.778Z,9.20
2018-01-19T19:51:45.629Z,9.20
2018-01-19T19:54:13.444Z,9.73
2018-01-19T19:56:42.047Z,11.83
2018-01-19T19:59:09.898Z,8.73
2018-01-19T20:01:38.443Z,7.17
2018-01-19T20:04:06.247Z,6.70
2018-01-19T20:06:34.879Z,6.47
2018-01-19T20:09:02.696Z,7.30
2018-01-19T20:11:31.233Z,6.80
2018-01-19T20:13:59.052Z,5.90
2018-01-19T20:16:27.604Z,7.73
2018-01-19T20:18:55.463Z,7.60
2018-01-19T20:21:23.253Z,6.70
2018-01-19T20:23:51.055Z,6.40
2018-01-19T20:26:18.852Z,7.00
2018-01-19T20:28:46.675Z,6.17
2018-01-19T20:31:14.576Z,8.03
2018-01-19T20:33:42.342Z,6.87
2018-01-19T20:36:10.143Z,7.20
2018-01-19T20:38:38.731Z,6.97
2018-01-19T20:41:06.611Z,7.10
2018-01-19T20:43:34.426Z,6.33
2018-01-19T20:46:02.204Z,5.70
2018-01-19T20:48:29.971Z,6.83
2018-01-19T20:50:57.760Z,7.37
2018-01-19T20:53:26.331Z,8.37
2018-01-19T20:55:54.171Z,7.60
2018-01-19T20:58:22.015Z,7.77
2018-01-19T21:00:49.910Z,7.57
2018-01-19T21:03:17.699Z,6.43
2018-01-19T21:05:46.324Z,7.67
2018-01-19T21:08:14.192Z,6.90
2018-01-19T21:10:41.971Z,7.40
2018-01-19T21:13:09.780Z,7.10
2018-01-19T21:15:38.442Z,7.60
2018-01-19T21:18:07.019Z,7.70
2018-01-19T21:20:34.857Z,7.57
2018-01-19T21:23:02.644Z,8.27
2018-01-19T21:25:30.471Z,9.00
2018-01-19T21:27:58.240Z,8.10
2018-01-19T21:30:26.022Z,6.93
2018-01-19T21:32:53.816Z,7.97
2018-01-19T21:35:21.578Z,6.50
2018-01-19T21:37:49.405Z,7.10
2018-01-19T21:40:17.255Z,6.20
2018-01-19T21:42:45.054Z,6.40
2018-01-19T21:45:12.873Z,7.32
2018-01-19T21:47:40.679Z,7.90
2018-01-19T21:50:08.478Z,7.63
2018-01-19T21:52:37.097Z,6.80
2018-01-19T21:55:04.863Z,6.47
2018-01-19T21:57:32.659Z,7.13
2018-01-19T22:00:00.521Z,6.73
2018-01-19T22:02:28.336Z,8.20
2018-01-19T22:04:58.446Z,8.00
2018-01-19T22:07:26.546Z,8.00
2018-01-19T22:09:54.323Z,7.57
2018-01-19T22:12:22.120Z,6.70
2018-01-19T22:14:49.940Z,7.10
2018-01-19T22:17:17.736Z,7.20
2018-01-19T22:19:45.542Z,7.80
2018-01-19T22:22:14.147Z,7.17
2018-01-19T22:24:41.952Z,6.80
2018-01-19T22:27:10.018Z,7.20
2018-01-19T22:29:37.813Z,7.63
2018-01-19T22:32:05.664Z,6.60
2018-01-19T22:34:33.629Z,7.10
2018-01-19T22:37:01.476Z,6.97
2018-01-19T22:39:29.378Z,7.83
2018-01-19T22:41:57.326Z,7.13
2018-01-19T22:44:25.190Z,6.10
2018-01-19T22:46:53.499Z,6.50
2018-01-19T22:49:21.976Z,5.93
2018-01-19T22:51:50.439Z,6.60
2018-01-19T22:54:18.809Z,7.30
2018-01-19T22:56:47.052Z,6.10
2018-01-19T22:59:15.185Z,5.70
2018-01-19T23:01:43.478Z,6.43
2018-01-19T23:04:11.703Z,6.13
2018-01-19T23:06:39.844Z,5.80
2018-01-19T23:09:07.987Z,6.43
2018-01-19T23:11:35.941Z,6.20
2018-01-19T23:14:04.651Z,6.20
2018-01-19T23:16:32.491Z,5.50
2018-01-19T23:19:00.362Z,6.17
2018-01-19T23:21:28.258Z,5.60
2018-01-19T23:23:56.047Z,5.23
2018-01-19T23:26:23.843Z,5.53
2018-01-19T23:28:51.637Z,4.97
2018-01-19T23:31:20.197Z,6.23
2018-01-19T23:33:48.015Z,7.80
2018-01-19T23:36:15.798Z,7.70
2018-01-19T23:38:43.596Z,8.10
2018-01-19T23:41:11.508Z,6.70
2018-01-19T23:43:39.341Z,6.23
2018-01-19T23:46:07.918Z,6.33
2018-01-19T23:48:35.815Z,6.93
2018-01-19T23:51:03.690Z,8.20
2018-01-19T23:53:31.546Z,7.77
2018-01-19T23:55:59.362Z,7.43
2018-01-19T23:58:27.166Z,7.10
